createdAt,value
2018-11-12T00:00:33.803Z,31.30
2018-11-12T00:03:01.417Z,33.50
2018-11-12T00:05:28.950Z,30.90
2018-11-12T00:07:56.700Z,32.60
2018-11-12T00:10:24.422Z,37.30
2018-11-12T00:12:52.082Z,36.30
2018-11-12T00:15:19.584Z,36.40
2018-11-12T00:17:47.197Z,37.97
2018-11-12T00:20:15.776Z,36.50
2018-11-12T00:22:43.844Z,34.30
2018-11-12T00:25:11.516Z,38.20
2018-11-12T00:27:39.366Z,32.93
2018-11-12T00:30:09.456Z,30.33
2018-11-12T00:32:36.953Z,31.00
2018-11-12T00:35:05.589Z,33.20
2018-11-12T00:37:33.253Z,34.83
2018-11-12T00:40:00.817Z,32.27
2018-11-12T00:42:28.521Z,30.37
2018-11-12T00:44:56.138Z,30.60
2018-11-12T00:47:23.801Z,28.77
2018-11-12T00:49:51.509Z,28.63
2018-11-12T00:52:19.328Z,26.10
2018-11-12T00:54:46.887Z,24.83
2018-11-12T00:57:14.625Z,23.33
2018-11-12T00:59:42.106Z,22.93
2018-11-12T01:02:09.769Z,23.23
2018-11-12T01:04:37.433Z,21.40
2018-11-12T01:07:05.145Z,21.50
2018-11-12T01:09:32.756Z,23.13
2018-11-12T01:12:00.521Z,20.23
2018-11-12T01:14:28.077Z,20.13
2018-11-12T01:16:55.633Z,20.27
2018-11-12T01:19:23.352Z,19.13
2018-11-12T01:21:50.956Z,18.70
2018-11-12T01:24:18.532Z,17.40
2018-11-12T01:26:46.216Z,18.83
2018-11-12T01:29:13.841Z,17.90
2018-11-12T01:31:41.508Z,17.87
2018-11-12T01:34:09.099Z,17.80
2018-11-12T01:36:36.664Z,18.10
2018-11-12T01:39:07.208Z,19.20
2018-11-12T01:41:34.817Z,19.37
2018-11-12T01:44:02.481Z,20.70
2018-11-12T01:46:30.040Z,20.53
2018-11-12T01:48:57.540Z,18.13
2018-11-12T01:51:25.102Z,18.60
2018-11-12T01:53:52.719Z,18.60
2018-11-12T01:56:20.174Z,19.43
2018-11-12T01:58:47.940Z,18.60
2018-11-12T02:01:15.442Z,19.50
2018-11-12T02:03:43.105Z,17.60
2018-11-12T02:06:10.767Z,17.77
2018-11-12T02:08:38.575Z,19.23
2018-11-12T02:11:06.040Z,17.40
2018-11-12T02:13:33.653Z,17.27
2018-11-12T02:16:01.265Z,18.03
2018-11-12T02:18:29.077Z,19.63
2018-11-12T02:20:56.642Z,18.73
2018-11-12T02:23:24.193Z,20.33
2018-11-12T02:25:51.756Z,20.67
2018-11-12T02:28:19.419Z,19.50
2018-11-12T02:30:47.996Z,18.40
2018-11-12T02:33:16.204Z,18.47
2018-11-12T02:35:43.943Z,18.30
2018-11-12T02:38:11.500Z,16.33
2018-11-12T02:40:39.069Z,18.70
2018-11-12T02:43:07.030Z,16.80
2018-11-12T02:45:34.643Z,17.33
2018-11-12T02:48:02.355Z,17.83
2018-11-12T02:50:36.716Z,16.13
2018-11-12T02:53:04.437Z,16.57
2018-11-12T02:55:32.078Z,16.03
2018-11-12T02:57:59.653Z,14.43
2018-11-12T03:00:27.248Z,15.60
2018-11-12T03:02:55.136Z,18.10
2018-11-12T03:05:22.747Z,16.90
2018-11-12T03:07:50.242Z,15.90
2018-11-12T03:10:19.300Z,15.70
2018-11-12T03:12:47.016Z,16.17
2018-11-12T03:15:15.130Z,19.33
2018-11-12T03:17:43.409Z,19.80
2018-11-12T03:20:12.763Z,21.13
2018-11-12T03:22:40.404Z,23.07
2018-11-12T03:25:09.518Z,22.10
2018-11-12T03:27:37.305Z,20.77
2018-11-12T03:30:05.510Z,24.07
2018-11-12T03:32:33.115Z,23.70
2018-11-12T03:35:00.786Z,20.87
2018-11-12T03:37:28.293Z,23.20
2018-11-12T03:39:55.901Z,37.43
2018-11-12T03:42:23.495Z,26.37
2018-11-12T03:44:51.019Z,29.97
2018-11-12T03:47:18.687Z,27.00
2018-11-12T03:49:46.189Z,28.17
2018-11-12T03:52:13.845Z,25.73
2018-11-12T03:54:41.463Z,25.97
2018-11-12T03:57:09.125Z,24.63
2018-11-12T03:59:36.587Z,26.03
2018-11-12T04:02:04.804Z,26.30
2018-11-12T04:04:32.321Z,27.13
2018-11-12T04:07:00.045Z,25.93
2018-11-12T04:09:27.747Z,24.53
2018-11-12T04:11:55.347Z,25.00
2018-11-12T04:14:22.917Z,24.73
2018-11-12T04:16:50.559Z,25.17
2018-11-12T04:19:18.148Z,23.53
2018-11-12T04:21:45.749Z,22.20
2018-11-12T04:24:13.302Z,21.07
2018-11-12T04:26:40.809Z,20.97
2018-11-12T04:29:08.472Z,17.70
2018-11-12T04:31:35.977Z,18.67
2018-11-12T04:34:03.693Z,15.60
2018-11-12T04:36:31.410Z,20.37
2018-11-12T04:38:59.048Z,20.40
2018-11-12T04:41:26.735Z,18.17
2018-11-12T04:43:54.393Z,18.37
2018-11-12T04:46:21.953Z,16.00
2018-11-12T04:48:49.510Z,16.00
2018-11-12T04:51:17.067Z,17.57
2018-11-12T04:53:44.767Z,19.00
2018-11-12T04:56:12.444Z,19.20
2018-11-12T04:58:40.056Z,15.87
2018-11-12T05:01:07.817Z,19.50
2018-11-12T05:03:35.642Z,23.37
2018-11-12T05:06:03.245Z,19.97
2018-11-12T05:08:30.897Z,17.70
2018-11-12T05:10:59.189Z,20.63
2018-11-12T05:13:26.792Z,18.50
2018-11-12T05:15:54.490Z,19.47
2018-11-12T05:18:22.116Z,18.40
2018-11-12T05:20:49.690Z,15.87
2018-11-12T05:23:17.152Z,19.07
2018-11-12T05:25:44.596Z,18.67
2018-11-12T05:28:11.853Z,19.73
2018-11-12T05:30:39.219Z,24.00
2018-11-12T05:33:06.896Z,20.00
2018-11-12T05:35:34.628Z,18.67
2018-11-12T05:38:02.307Z,21.27
2018-11-12T05:40:30.109Z,20.77
2018-11-12T05:42:57.819Z,15.47
2018-11-12T05:45:26.539Z,18.13
2018-11-12T05:47:54.019Z,17.27
2018-11-12T05:50:26.703Z,15.23
2018-11-12T05:52:55.787Z,14.47
2018-11-12T05:55:24.572Z,13.30
2018-11-12T05:57:52.184Z,17.90
2018-11-12T06:00:22.969Z,14.93
2018-11-12T06:02:50.684Z,11.50
2018-11-12T06:05:18.346Z,11.97
2018-11-12T06:07:46.111Z,13.20
2018-11-12T06:10:17.712Z,11.90
2018-11-12T06:12:45.533Z,13.93
2018-11-12T06:15:13.549Z,12.43
2018-11-12T06:17:41.833Z,12.70
2018-11-12T06:20:13.382Z,12.33
2018-11-12T06:22:41.005Z,12.70
2018-11-12T06:25:09.780Z,23.97
2018-11-12T06:27:37.498Z,18.93
2018-11-12T06:30:07.348Z,18.33
2018-11-12T06:32:35.124Z,16.83
2018-11-12T06:35:02.934Z,16.93
2018-11-12T06:37:30.538Z,16.83
2018-11-12T06:39:58.160Z,19.67
2018-11-12T06:42:25.785Z,17.03
2018-11-12T06:44:53.377Z,18.87
2018-11-12T06:47:21.100Z,15.70
2018-11-12T06:49:48.806Z,19.73
2018-11-12T06:52:16.552Z,16.20
2018-11-12T06:54:44.182Z,19.40
2018-11-12T06:57:11.774Z,17.60
2018-11-12T06:59:39.293Z,15.13
2018-11-12T07:02:07.062Z,16.63
2018-11-12T07:04:34.777Z,19.70
2018-11-12T07:07:02.358Z,17.50
2018-11-12T07:09:29.944Z,18.13
2018-11-12T07:11:57.508Z,19.47
2018-11-12T07:14:25.067Z,18.53
2018-11-12T07:16:52.675Z,16.40
2018-11-12T07:19:20.393Z,14.93
2018-11-12T07:21:47.994Z,12.17
2018-11-12T07:24:15.763Z,12.70
2018-11-12T07:26:43.271Z,11.73
2018-11-12T07:29:10.930Z,11.87
2018-11-12T07:31:39.057Z,17.53
2018-11-12T07:34:06.924Z,22.43
2018-11-12T07:36:34.581Z,22.57
2018-11-12T07:39:02.254Z,20.17
2018-11-12T07:41:29.908Z,21.67
2018-11-12T07:43:57.624Z,17.97
2018-11-12T07:46:25.132Z,16.37
2018-11-12T07:48:53.029Z,14.33
2018-11-12T07:51:20.723Z,12.40
2018-11-12T07:53:48.520Z,11.13
2018-11-12T07:56:16.205Z,10.60
2018-11-12T07:58:43.932Z,10.43
2018-11-12T08:01:11.512Z,10.70
2018-11-12T08:03:39.093Z,10.67
2018-11-12T08:06:06.671Z,11.13
2018-11-12T08:08:34.392Z,9.63
2018-11-12T08:11:01.949Z,10.27
2018-11-12T08:13:29.663Z,9.63
2018-11-12T08:15:57.270Z,9.50
2018-11-12T08:18:24.937Z,10.40
2018-11-12T08:20:52.593Z,12.90
2018-11-12T08:23:20.305Z,13.73
2018-11-12T08:25:47.840Z,14.30
2018-11-12T08:28:16.260Z,13.30
2018-11-12T08:30:44.926Z,12.00
2018-11-12T08:33:12.695Z,10.70
2018-11-12T08:35:41.075Z,11.07
2018-11-12T08:38:09.248Z,29.03
2018-11-12T08:40:37.779Z,29.00
2018-11-12T08:43:05.535Z,15.67
2018-11-12T08:45:33.155Z,20.83
2018-11-12T08:48:00.768Z,18.40
2018-11-12T08:50:28.466Z,20.20
2018-11-12T08:52:57.509Z,11.63
2018-11-12T08:55:27.463Z,11.50
2018-11-12T08:57:59.528Z,12.70
2018-11-12T09:00:28.392Z,10.73
2018-11-12T09:03:02.615Z,10.40
2018-11-12T09:05:30.787Z,11.10
2018-11-12T09:07:59.620Z,12.77
2018-11-12T09:10:28.922Z,11.30
2018-11-12T09:12:56.538Z,12.30
2018-11-12T09:15:24.093Z,12.50
2018-11-12T09:17:51.799Z,12.50
2018-11-12T09:20:22.232Z,11.70
2018-11-12T09:22:49.859Z,12.13
2018-11-12T09:25:19.608Z,11.20
2018-11-12T09:27:47.262Z,12.73
2018-11-12T09:30:17.388Z,11.70
2018-11-12T09:32:45.373Z,11.27
2018-11-12T09:35:17.112Z,11.83
2018-11-12T09:37:46.010Z,10.33
2018-11-12T09:40:15.311Z,11.67
2018-11-12T09:42:42.906Z,11.60
2018-11-12T09:45:10.888Z,14.10
2018-11-12T09:47:38.842Z,11.70
2018-11-12T09:50:08.562Z,11.13
2018-11-12T09:52:36.333Z,10.77
2018-11-12T09:55:04.117Z,10.70
2018-11-12T09:57:31.800Z,11.33
2018-11-12T09:59:59.411Z,10.23
2018-11-12T10:02:27.942Z,10.70
2018-11-12T10:04:56.289Z,10.70
2018-11-12T10:07:23.249Z,9.30
2018-11-12T10:09:51.833Z,10.40
2018-11-12T10:12:21.386Z,9.00
2018-11-12T10:14:50.083Z,8.00
2018-11-12T10:17:16.762Z,8.23
2018-11-12T10:19:41.994Z,8.30
2018-11-12T10:22:09.597Z,9.03
2018-11-12T10:24:37.976Z,7.83
2018-11-12T10:27:05.944Z,7.53
2018-11-12T10:29:33.714Z,7.67
2018-11-12T10:32:01.326Z,7.73
2018-11-12T10:34:28.878Z,7.90
2018-11-12T10:36:56.389Z,6.77
2018-11-12T10:39:24.053Z,6.93
2018-11-12T10:41:51.644Z,6.40
2018-11-12T10:44:19.312Z,7.10
2018-11-12T10:46:46.888Z,7.03
2018-11-12T10:49:15.214Z,6.83
2018-11-12T10:51:42.772Z,6.33
2018-11-12T10:54:10.515Z,6.27
2018-11-12T10:56:38.203Z,5.63
2018-11-12T10:59:06.117Z,7.73
2018-11-12T11:01:39.192Z,5.97
2018-11-12T11:04:12.296Z,6.10
2018-11-12T11:06:39.689Z,4.97
2018-11-12T11:09:08.028Z,5.70
2018-11-12T11:11:35.843Z,5.77
2018-11-12T11:14:03.543Z,5.77
2018-11-12T11:16:31.369Z,6.00
2018-11-12T11:18:59.018Z,5.33
2018-11-12T11:21:26.697Z,6.20
2018-11-12T11:23:54.404Z,5.70
2018-11-12T11:26:22.021Z,5.77
2018-11-12T11:28:49.767Z,5.57
2018-11-12T11:31:17.448Z,6.10
2018-11-12T11:33:45.211Z,5.10
2018-11-12T11:36:12.870Z,15.33
2018-11-12T11:38:40.588Z,7.67
2018-11-12T11:41:08.300Z,6.07
2018-11-12T11:43:35.961Z,6.80
2018-11-12T11:46:03.665Z,6.40
2018-11-12T11:48:31.321Z,6.70
2018-11-12T11:50:58.922Z,6.33
2018-11-12T11:53:26.808Z,6.47
2018-11-12T12:08:44.114Z,5.73
2018-11-12T12:11:11.823Z,5.00
2018-11-12T12:13:40.611Z,5.60
2018-11-12T12:16:08.333Z,5.23
2018-11-12T12:18:35.908Z,6.20
2018-11-12T12:21:03.712Z,4.63
2018-11-12T12:23:31.422Z,5.60
2018-11-12T12:25:59.015Z,5.40
2018-11-12T12:28:26.587Z,5.00
2018-11-12T12:30:54.047Z,5.00
2018-11-12T12:33:21.644Z,5.00
2018-11-12T12:35:50.204Z,4.77
2018-11-12T12:38:17.849Z,5.00
2018-11-12T12:40:45.364Z,4.80
2018-11-12T12:43:13.075Z,5.47
2018-11-12T12:45:40.874Z,6.03
2018-11-12T12:48:09.000Z,4.80
2018-11-12T12:50:36.777Z,5.67
2018-11-12T12:53:04.750Z,4.40
2018-11-12T12:55:32.632Z,4.63
2018-11-12T12:58:00.321Z,5.00
2018-11-12T13:00:28.350Z,6.23
2018-11-12T13:02:56.345Z,4.87
2018-11-12T13:05:23.975Z,4.53
2018-11-12T13:07:51.580Z,5.07
2018-11-12T13:10:20.362Z,5.70
2018-11-12T13:12:47.932Z,5.43
2018-11-12T13:15:16.571Z,5.47
2018-11-12T13:17:44.952Z,5.80
2018-11-12T13:20:13.896Z,4.77
2018-11-12T13:22:42.376Z,4.60
2018-11-12T13:25:10.385Z,5.43
2018-11-12T13:27:38.417Z,5.30
2018-11-12T13:30:08.275Z,5.43
2018-11-12T13:32:35.946Z,5.57
2018-11-12T13:35:03.904Z,5.80
2018-11-12T13:37:31.465Z,6.07
2018-11-12T13:39:59.081Z,4.90
2018-11-12T13:42:26.996Z,5.70
2018-11-12T13:44:54.761Z,5.13
2018-11-12T13:47:22.320Z,4.40
2018-11-12T13:49:50.176Z,5.50
2018-11-12T13:52:17.799Z,5.70
2018-11-12T13:54:45.473Z,5.43
2018-11-12T13:57:13.169Z,6.00
2018-11-12T13:59:40.832Z,5.50
2018-11-12T14:02:08.493Z,5.13
2018-11-12T14:04:36.164Z,5.67
2018-11-12T14:07:03.806Z,5.63
2018-11-12T14:09:31.538Z,6.60
2018-11-12T14:11:59.302Z,4.93
2018-11-12T14:14:27.064Z,6.60
2018-11-12T14:16:54.669Z,7.10
2018-11-12T14:19:22.336Z,5.77
2018-11-12T14:21:49.846Z,6.13
2018-11-12T14:24:17.401Z,5.87
2018-11-12T14:26:44.907Z,7.43
2018-11-12T14:29:13.239Z,7.27
2018-11-12T14:31:40.799Z,6.13
2018-11-12T14:34:08.202Z,6.27
2018-11-12T14:36:35.846Z,6.23
2018-11-12T14:39:04.075Z,6.80
2018-11-12T14:41:31.734Z,6.30
2018-11-12T14:43:59.254Z,5.40
2018-11-12T14:46:26.784Z,6.10
2018-11-12T14:48:54.229Z,7.17
2018-11-12T14:51:21.872Z,7.10
2018-11-12T14:53:49.556Z,6.80
2018-11-12T14:56:17.010Z,5.93
2018-11-12T14:58:44.648Z,5.97
2018-11-12T15:01:12.231Z,8.47
2018-11-12T15:03:40.045Z,9.97
2018-11-12T15:06:07.657Z,9.47
2018-11-12T15:08:35.266Z,9.40
2018-11-12T15:11:02.924Z,11.67
2018-11-12T15:13:30.543Z,11.47
2018-11-12T15:15:58.049Z,11.47
2018-11-12T15:18:25.604Z,11.60
2018-11-12T15:20:53.069Z,13.20
2018-11-12T15:23:20.727Z,12.93
2018-11-12T15:25:48.277Z,14.00
2018-11-12T15:28:15.796Z,15.00
2018-11-12T15:30:43.355Z,13.50
2018-11-12T15:33:10.910Z,15.57
2018-11-12T15:35:38.374Z,15.90
2018-11-12T15:38:06.136Z,16.07
2018-11-12T15:40:33.842Z,14.53
2018-11-12T15:43:01.366Z,14.87
2018-11-12T15:45:29.068Z,16.00
2018-11-12T15:47:56.628Z,14.60
2018-11-12T15:50:28.744Z,15.30
2018-11-12T15:52:56.347Z,15.17
2018-11-12T15:55:23.971Z,20.07
2018-11-12T15:57:51.853Z,16.20
2018-11-12T16:00:19.396Z,16.53
2018-11-12T16:02:46.857Z,13.33
2018-11-12T16:05:14.657Z,17.63
2018-11-12T16:07:42.377Z,25.60
2018-11-12T16:10:13.150Z,19.63
2018-11-12T16:12:40.963Z,17.80
2018-11-12T16:15:09.157Z,14.50
2018-11-12T16:17:36.846Z,12.67
2018-11-12T16:20:07.452Z,11.67
2018-11-12T16:22:35.216Z,12.33
2018-11-12T16:25:03.021Z,11.00
2018-11-12T16:27:30.637Z,10.60
2018-11-12T16:29:58.301Z,12.20
2018-11-12T16:32:25.974Z,11.80
2018-11-12T16:34:53.669Z,11.33
2018-11-12T16:37:21.336Z,11.67
2018-11-12T16:39:48.893Z,12.93
2018-11-12T16:42:16.433Z,12.00
2018-11-12T16:44:44.066Z,13.93
2018-11-12T16:47:11.728Z,16.07
2018-11-12T16:49:39.541Z,18.80
2018-11-12T16:52:07.132Z,14.67
2018-11-12T16:54:34.818Z,14.93
2018-11-12T16:57:02.575Z,13.83
2018-11-12T16:59:30.183Z,12.27
2018-11-12T17:01:57.785Z,12.87
2018-11-12T17:04:25.443Z,11.97
2018-11-12T17:06:53.224Z,13.40
2018-11-12T17:09:20.722Z,12.93
2018-11-12T17:11:48.237Z,13.63
2018-11-12T17:14:15.535Z,13.00
2018-11-12T17:16:43.107Z,13.10
2018-11-12T17:19:10.749Z,14.57
2018-11-12T17:21:38.422Z,13.60
2018-11-12T17:24:05.989Z,13.97
2018-11-12T17:26:33.545Z,14.13
2018-11-12T17:29:01.314Z,13.23
2018-11-12T17:31:29.018Z,13.93
2018-11-12T17:33:56.849Z,14.80
2018-11-12T17:36:24.531Z,14.80
2018-11-12T17:38:52.166Z,14.57
2018-11-12T17:41:19.708Z,14.10
2018-11-12T17:43:47.238Z,14.13
2018-11-12T17:46:14.799Z,14.50
2018-11-12T17:48:42.410Z,14.70
2018-11-12T17:51:11.089Z,14.10
2018-11-12T17:53:38.789Z,13.67
2018-11-12T17:56:06.520Z,13.70
2018-11-12T17:58:34.221Z,15.30
2018-11-12T18:01:01.827Z,13.70
2018-11-12T18:03:29.509Z,14.07
2018-11-12T18:05:57.197Z,15.30
2018-11-12T18:08:24.778Z,13.53
2018-11-12T18:10:52.855Z,12.73
2018-11-12T18:13:20.555Z,14.10
2018-11-12T18:15:48.198Z,15.20
2018-11-12T18:18:15.937Z,13.97
2018-11-12T18:20:43.496Z,18.90
2018-11-12T18:23:11.164Z,17.67
2018-11-12T18:25:38.726Z,19.80
2018-11-12T18:28:06.229Z,19.07
2018-11-12T18:30:33.972Z,18.97
2018-11-12T18:33:01.653Z,15.90
2018-11-12T18:35:29.151Z,17.07
2018-11-12T18:37:56.772Z,15.00
2018-11-12T18:40:25.729Z,17.97
2018-11-12T18:42:53.521Z,14.67
2018-11-12T18:45:28.094Z,15.67
2018-11-12T18:47:56.219Z,15.90
2018-11-12T18:50:25.118Z,15.27
2018-11-12T18:52:53.590Z,15.90
2018-11-12T18:55:21.156Z,15.57
2018-11-12T18:57:49.225Z,15.77
2018-11-12T19:00:18.249Z,13.90
2018-11-12T19:02:46.068Z,16.13
2018-11-12T19:05:15.753Z,14.67
2018-11-12T19:07:44.376Z,17.00
2018-11-12T19:10:14.082Z,20.67
2018-11-12T19:12:42.158Z,16.93
2018-11-12T19:15:12.775Z,15.73
2018-11-12T19:17:41.841Z,17.50
2018-11-12T19:20:09.548Z,17.83
2018-11-12T19:22:37.265Z,16.10
2018-11-12T19:25:06.761Z,14.00
2018-11-12T19:27:34.372Z,15.90
2018-11-12T19:30:01.923Z,17.50
2018-11-12T19:32:29.488Z,15.90
2018-11-12T19:34:57.222Z,16.50
2018-11-12T19:37:24.926Z,16.57
2018-11-12T19:39:52.671Z,15.97
2018-11-12T19:42:20.554Z,15.57
2018-11-12T19:44:48.165Z,17.03
2018-11-12T19:47:15.890Z,16.43
2018-11-12T19:49:43.479Z,14.53
2018-11-12T19:52:11.090Z,17.00
2018-11-12T19:54:38.786Z,16.77
2018-11-12T19:57:06.737Z,18.00
2018-11-12T19:59:34.892Z,19.00
2018-11-12T20:02:02.760Z,20.57
2018-11-12T20:04:30.321Z,20.00
2018-11-12T20:06:58.297Z,19.33
2018-11-12T20:09:26.740Z,16.90
2018-11-12T20:11:54.427Z,18.10
2018-11-12T20:14:22.257Z,19.40
2018-11-12T20:16:49.919Z,19.60
2018-11-12T20:19:17.845Z,21.23
2018-11-12T20:21:45.336Z,20.03
2018-11-12T20:24:12.837Z,17.23
2018-11-12T20:26:40.420Z,18.20
2018-11-12T20:29:07.972Z,16.13
2018-11-12T20:31:35.638Z,18.60
2018-11-12T20:34:03.269Z,18.40
2018-11-12T20:36:30.818Z,17.83
2018-11-12T20:38:59.171Z,18.80
2018-11-12T20:41:26.649Z,16.90
2018-11-12T20:43:54.451Z,17.53
2018-11-12T20:46:22.475Z,17.73
2018-11-12T20:48:50.302Z,17.77
2018-11-12T20:51:17.928Z,20.10
2018-11-12T20:53:45.575Z,19.20
2018-11-12T20:56:13.078Z,19.30
2018-11-12T20:58:41.464Z,19.53
2018-11-12T21:01:09.420Z,19.30
2018-11-12T21:03:38.364Z,19.27
2018-11-12T21:06:08.324Z,16.70
2018-11-12T21:08:36.208Z,19.80
2018-11-12T21:11:04.796Z,22.67
2018-11-12T21:13:32.498Z,21.97
2018-11-12T21:16:00.343Z,24.50
2018-11-12T21:18:27.969Z,24.67
2018-11-12T21:20:55.585Z,24.67
2018-11-12T21:23:23.238Z,23.60
2018-11-12T21:25:50.956Z,23.03
2018-11-12T21:28:18.468Z,23.27
2018-11-12T21:30:46.162Z,22.17
2018-11-12T21:33:13.744Z,22.63
2018-11-12T21:35:41.494Z,24.83
2018-11-12T21:38:09.224Z,22.07
2018-11-12T21:40:36.932Z,22.60
2018-11-12T21:43:04.711Z,24.23
2018-11-12T21:45:32.361Z,25.33
2018-11-12T21:47:59.864Z,25.03
2018-11-12T21:50:27.476Z,24.27
2018-11-12T21:52:55.089Z,25.93
2018-11-12T21:55:22.648Z,26.20
2018-11-12T21:57:50.260Z,25.43
2018-11-12T22:00:27.237Z,24.37
2018-11-12T22:02:57.960Z,24.07
2018-11-12T22:05:26.010Z,25.57
2018-11-12T22:07:53.709Z,22.27
2018-11-12T22:10:21.319Z,25.07
2018-11-12T22:12:49.749Z,24.20
2018-11-12T22:15:17.301Z,23.13
2018-11-12T22:17:44.971Z,19.80
2018-11-12T22:20:13.708Z,22.93
2018-11-12T22:22:41.620Z,22.40
2018-11-12T22:25:11.124Z,21.10
2018-11-12T22:27:39.286Z,17.80
2018-11-12T22:30:08.399Z,19.70
2018-11-12T22:32:36.015Z,21.80
2018-11-12T22:35:03.722Z,22.47
2018-11-12T22:37:31.383Z,22.30
2018-11-12T22:39:58.941Z,22.37
2018-11-12T22:42:27.575Z,19.93
2018-11-12T22:44:55.184Z,22.20
2018-11-12T22:47:22.749Z,21.00
2018-11-12T22:49:50.408Z,21.70
2018-11-12T22:52:17.972Z,19.37
2018-11-12T22:54:45.628Z,20.53
2018-11-12T22:57:13.241Z,20.00
2018-11-12T22:59:40.819Z,18.70
2018-11-12T23:02:08.360Z,20.83
2018-11-12T23:04:36.029Z,19.73
2018-11-12T23:07:03.692Z,20.13
2018-11-12T23:09:31.295Z,20.37
2018-11-12T23:11:58.955Z,19.10
2018-11-12T23:14:26.504Z,20.27
2018-11-12T23:16:54.125Z,22.00
2018-11-12T23:19:21.480Z,22.83
2018-11-12T23:21:48.989Z,23.23
2018-11-12T23:24:16.552Z,24.53
2018-11-12T23:26:44.315Z,24.73
2018-11-12T23:29:11.977Z,24.43
2018-11-12T23:31:39.620Z,28.30
2018-11-12T23:34:07.256Z,26.43
2018-11-12T23:36:34.809Z,26.03
2018-11-12T23:39:02.468Z,26.37
2018-11-12T23:41:30.133Z,30.53
2018-11-12T23:43:57.741Z,26.77
2018-11-12T23:46:25.457Z,26.23
2018-11-12T23:48:53.776Z,25.57
2018-11-12T23:51:21.297Z,26.43
2018-11-12T23:53:48.855Z,28.13
2018-11-12T23:56:16.307Z,25.53
2018-11-12T23:58:43.867Z,25.07
